sensor_id;sensor_type;location;lat;lon;timestamp;pressure;altitude;pressure_sealevel;temperature;humidity
8890;BME280;4481;43.406;24.454;2023-03-05T00:00:37;77512.91;;;-144.09;100.00
8890;BME280;4481;43.406;24.454;2023-03-05T00:03:03;77489.91;;;-144.09;100.00
8890;BME280;4481;43.406;24.454;2023-03-05T00:05:29;77498.28;;;-144.09;100.00
8890;BME280;4481;43.406;24.454;2023-03-05T00:07:55;77492.00;;;-144.09;100.00
8890;BME280;4481;43.406;24.454;2023-03-05T00:10:21;77489.91;;;-144.09;100.00
8890;BME280;4481;43.406;24.454;2023-03-05T00:12:48;77481.56;;;-144.09;100.00
8890;BME280;4481;43.406;24.454;2023-03-05T00:15:14;77483.66;;;-144.09;100.00
8890;BME280;4481;43.406;24.454;2023-03-05T00:17:41;77504.53;;;-144.09;100.00
8890;BME280;4481;43.406;24.454;2023-03-05T00:20:08;77492.00;;;-144.09;100.00
8890;BME280;4481;43.406;24.454;2023-03-05T00:22:35;77498.28;;;-144.09;100.00
8890;BME280;4481;43.406;24.454;2023-03-05T00:25:02;77489.91;;;-144.09;100.00
8890;BME280;4481;43.406;24.454;2023-03-05T00:27:29;77494.09;;;-144.09;100.00
8890;BME280;4481;43.406;24.454;2023-03-05T00:29:55;77500.38;;;-144.09;100.00
8890;BME280;4481;43.406;24.454;2023-03-05T00:32:21;77487.81;;;-144.09;100.00
8890;BME280;4481;43.406;24.454;2023-03-05T00:34:48;77464.84;;;-144.09;100.00
8890;BME280;4481;43.406;24.454;2023-03-05T00:37:14;77464.84;;;-144.09;100.00
8890;BME280;4481;43.406;24.454;2023-03-05T00:39:41;77456.47;;;-144.09;100.00
8890;BME280;4481;43.406;24.454;2023-03-05T00:42:07;77450.19;;;-144.09;100.00
8890;BME280;4481;43.406;24.454;2023-03-05T00:44:33;77433.47;;;-144.09;100.00
8890;BME280;4481;43.406;24.454;2023-03-05T00:46:59;77425.13;;;-144.09;100.00
8890;BME280;4481;43.406;24.454;2023-03-05T00:49:25;77446.03;;;-144.09;100.00
8890;BME280;4481;43.406;24.454;2023-03-05T00:51:52;77435.56;;;-144.09;100.00
8890;BME280;4481;43.406;24.454;2023-03-05T00:54:18;77414.66;;;-144.09;100.00
8890;BME280;4481;43.406;24.454;2023-03-05T00:56:44;77406.31;;;-144.09;100.00
8890;BME280;4481;43.406;24.454;2023-03-05T00:59:11;77414.66;;;-144.09;100.00
8890;BME280;4481;43.406;24.454;2023-03-05T01:01:38;77414.66;;;-144.09;99.48
8890;BME280;4481;43.406;24.454;2023-03-05T01:04:04;77418.84;;;-144.09;100.00
8890;BME280;4481;43.406;24.454;2023-03-05T01:06:30;77414.66;;;-144.09;99.58
8890;BME280;4481;43.406;24.454;2023-03-05T01:08:57;77395.88;;;-144.09;98.90
8890;BME280;4481;43.406;24.454;2023-03-05T01:11:24;77393.78;;;-144.09;99.20
8890;BME280;4481;43.406;24.454;2023-03-05T01:13:50;77408.41;;;-144.09;99.55
8890;BME280;4481;43.406;24.454;2023-03-05T01:16:16;77389.59;;;-144.09;98.62
8890;BME280;4481;43.406;24.454;2023-03-05T01:18:42;77391.69;;;-144.09;99.00
8890;BME280;4481;43.406;24.454;2023-03-05T01:21:09;77404.22;;;-144.09;99.18
8890;BME280;4481;43.406;24.454;2023-03-05T01:23:35;77395.88;;;-144.09;98.96
8890;BME280;4481;43.406;24.454;2023-03-05T01:26:03;77402.13;;;-144.09;99.10
8890;BME280;4481;43.406;24.454;2023-03-05T01:28:29;77410.50;;;-144.09;98.80
8890;BME280;4481;43.406;24.454;2023-03-05T01:30:56;77400.03;;;-144.09;98.45
8890;BME280;4481;43.406;24.454;2023-03-05T01:33:23;77416.75;;;-144.09;98.88
8890;BME280;4481;43.406;24.454;2023-03-05T01:35:49;77425.13;;;-144.09;99.40
8890;BME280;4481;43.406;24.454;2023-03-05T01:38:16;77427.22;;;-144.09;99.44
8890;BME280;4481;43.406;24.454;2023-03-05T01:40:43;77435.56;;;-144.09;99.27
8890;BME280;4481;43.406;24.454;2023-03-05T01:43:22;77404.22;;;-144.09;98.33
8890;BME280;4481;43.406;24.454;2023-03-05T01:48:58;77420.94;;;-144.09;99.06
8890;BME280;4481;43.406;24.454;2023-03-05T01:51:29;77404.22;;;-144.09;98.77
8890;BME280;4481;43.406;24.454;2023-03-05T01:53:57;77406.31;;;-144.09;98.90
8890;BME280;4481;43.406;24.454;2023-03-05T01:56:26;77418.84;;;-144.09;98.72
8890;BME280;4481;43.406;24.454;2023-03-05T01:58:54;77408.41;;;-144.09;98.43
8890;BME280;4481;43.406;24.454;2023-03-05T02:01:29;77429.31;;;-144.09;99.01
8890;BME280;4481;43.406;24.454;2023-03-05T02:03:55;77427.22;;;-144.09;98.98
8890;BME280;4481;43.406;24.454;2023-03-05T02:06:21;77418.84;;;-144.09;99.06
8890;BME280;4481;43.406;24.454;2023-03-05T02:08:47;77408.41;;;-144.09;98.35
8890;BME280;4481;43.406;24.454;2023-03-05T02:11:14;77425.13;;;-144.09;98.85
8890;BME280;4481;43.406;24.454;2023-03-05T02:13:40;77429.31;;;-144.09;98.51
8890;BME280;4481;43.406;24.454;2023-03-05T02:16:07;77420.94;;;-144.09;98.72
8890;BME280;4481;43.406;24.454;2023-03-05T02:18:33;77410.50;;;-144.09;98.21
8890;BME280;4481;43.406;24.454;2023-03-05T02:21:03;77414.66;;;-144.09;98.25
8890;BME280;4481;43.406;24.454;2023-03-05T02:23:31;77439.75;;;-144.09;98.83
8890;BME280;4481;43.406;24.454;2023-03-05T02:26:01;77439.75;;;-144.09;98.83
8890;BME280;4481;43.406;24.454;2023-03-05T02:28:32;77429.31;;;-144.09;98.54
8890;BME280;4481;43.406;24.454;2023-03-05T02:31:00;77414.66;;;-144.09;98.40
8890;BME280;4481;43.406;24.454;2023-03-05T02:33:26;77431.38;;;-144.09;98.93
8890;BME280;4481;43.406;24.454;2023-03-05T02:35:52;77425.13;;;-144.09;98.62
8890;BME280;4481;43.406;24.454;2023-03-05T02:38:20;77433.47;;;-144.09;99.27
8890;BME280;4481;43.406;24.454;2023-03-05T02:40:46;77477.38;;;-144.09;100.00
8890;BME280;4481;43.406;24.454;2023-03-05T02:43:12;77469.00;;;-144.09;99.89
8890;BME280;4481;43.406;24.454;2023-03-05T02:45:38;77462.75;;;-144.09;99.63
8890;BME280;4481;43.406;24.454;2023-03-05T02:48:05;77477.38;;;-144.09;100.00
8890;BME280;4481;43.406;24.454;2023-03-05T02:50:32;77471.09;;;-144.09;99.98
8890;BME280;4481;43.406;24.454;2023-03-05T02:52:59;77466.94;;;-144.09;99.49
8890;BME280;4481;43.406;24.454;2023-03-05T02:55:25;77485.72;;;-144.09;100.00
8890;BME280;4481;43.406;24.454;2023-03-05T02:57:51;77492.00;;;-144.09;100.00
8890;BME280;4481;43.406;24.454;2023-03-05T03:00:18;77487.81;;;-144.09;100.00
8890;BME280;4481;43.406;24.454;2023-03-05T03:02:44;77487.81;;;-144.09;99.50
8890;BME280;4481;43.406;24.454;2023-03-05T03:05:10;77479.47;;;-144.09;99.68
8890;BME280;4481;43.406;24.454;2023-03-05T03:07:36;77479.47;;;-144.09;99.34
8890;BME280;4481;43.406;24.454;2023-03-05T03:10:03;77496.19;;;-144.09;99.58
8890;BME280;4481;43.406;24.454;2023-03-05T03:12:30;77485.72;;;-144.09;99.30
8890;BME280;4481;43.406;24.454;2023-03-05T03:14:56;77475.28;;;-144.09;99.22
8890;BME280;4481;43.406;24.454;2023-03-05T03:17:22;77469.00;;;-144.09;98.77
8890;BME280;4481;43.406;24.454;2023-03-05T03:19:48;77479.47;;;-144.09;98.83
8890;BME280;4481;43.406;24.454;2023-03-05T03:22:15;77504.53;;;-144.09;99.11
8890;BME280;4481;43.406;24.454;2023-03-05T03:24:42;77517.09;;;-144.09;99.19
8890;BME280;4481;43.406;24.454;2023-03-05T03:27:08;77521.28;;;-144.09;99.22
8890;BME280;4481;43.406;24.454;2023-03-05T03:29:35;77531.72;;;-144.09;99.01
8890;BME280;4481;43.406;24.454;2023-03-05T03:32:02;77531.72;;;-144.09;99.27
8890;BME280;4481;43.406;24.454;2023-03-05T03:34:29;77527.53;;;-144.09;99.21
8890;BME280;4481;43.406;24.454;2023-03-05T03:36:55;77515.00;;;-144.09;99.09
8890;BME280;4481;43.406;24.454;2023-03-05T03:39:21;77515.00;;;-144.09;98.54
8890;BME280;4481;43.406;24.454;2023-03-05T03:41:49;77542.16;;;-144.09;99.97
8890;BME280;4481;43.406;24.454;2023-03-05T03:44:17;77544.25;;;-144.09;99.60
8890;BME280;4481;43.406;24.454;2023-03-05T03:46:44;77523.34;;;-144.09;99.01
8890;BME280;4481;43.406;24.454;2023-03-05T03:49:14;77540.06;;;-144.09;99.51
8890;BME280;4481;43.406;24.454;2023-03-05T03:51:41;77571.44;;;-144.09;100.00
8890;BME280;4481;43.406;24.454;2023-03-05T03:54:07;77575.63;;;-144.09;100.00
8890;BME280;4481;43.406;24.454;2023-03-05T03:56:33;77583.97;;;-144.09;100.00
8890;BME280;4481;43.406;24.454;2023-03-05T03:59:00;77575.63;;;-144.09;100.00
8890;BME280;4481;43.406;24.454;2023-03-05T04:01:26;77554.72;;;-144.09;99.57
8890;BME280;4481;43.406;24.454;2023-03-05T04:03:53;77548.44;;;-144.09;99.31
8890;BME280;4481;43.406;24.454;2023-03-05T04:06:19;77565.16;;;-144.09;99.67
8890;BME280;4481;43.406;24.454;2023-03-05T04:08:45;77556.81;;;-144.09;99.53
8890;BME280;4481;43.406;24.454;2023-03-05T04:11:11;77535.91;;;-144.09;98.49
8890;BME280;4481;43.406;24.454;2023-03-05T04:13:37;77540.06;;;-144.09;98.31
8890;BME280;4481;43.406;24.454;2023-03-05T04:16:04;77546.34;;;-144.09;98.52
8890;BME280;4481;43.406;24.454;2023-03-05T04:18:30;77556.81;;;-144.09;99.39
8890;BME280;4481;43.406;24.454;2023-03-05T04:20:57;77546.34;;;-144.09;98.94
8890;BME280;4481;43.406;24.454;2023-03-05T04:23:23;77554.72;;;-144.09;98.69
8890;BME280;4481;43.406;24.454;2023-03-05T04:25:50;77560.97;;;-144.09;98.82
8890;BME280;4481;43.406;24.454;2023-03-05T04:28:16;77571.44;;;-144.09;99.00
8890;BME280;4481;43.406;24.454;2023-03-05T04:30:43;77560.97;;;-144.09;98.54
8890;BME280;4481;43.406;24.454;2023-03-05T04:33:09;77565.16;;;-144.09;99.14
8890;BME280;4481;43.406;24.454;2023-03-05T04:35:35;77554.72;;;-144.09;98.69
8890;BME280;4481;43.406;24.454;2023-03-05T04:38:02;77590.25;;;-144.09;99.76
8890;BME280;4481;43.406;24.454;2023-03-05T04:40:28;77596.50;;;-144.09;100.00
8890;BME280;4481;43.406;24.454;2023-03-05T04:42:54;77569.34;;;-144.09;99.18
8890;BME280;4481;43.406;24.454;2023-03-05T04:45:21;77583.97;;;-144.09;99.27
8890;BME280;4481;43.406;24.454;2023-03-05T04:47:47;77571.44;;;-144.09;98.80
8890;BME280;4481;43.406;24.454;2023-03-05T04:50:13;77567.25;;;-144.09;98.64
8890;BME280;4481;43.406;24.454;2023-03-05T04:52:40;77550.53;;;-144.09;98.02
8890;BME280;4481;43.406;24.454;2023-03-05T04:55:08;77567.25;;;-144.09;98.07
8890;BME280;4481;43.406;24.454;2023-03-05T04:57:34;77552.63;;;-144.09;98.10
8890;BME280;4481;43.406;24.454;2023-03-05T05:00:01;77552.63;;;-144.09;97.82
8890;BME280;4481;43.406;24.454;2023-03-05T05:02:31;77550.53;;;-144.09;97.79
8890;BME280;4481;43.406;24.454;2023-03-05T05:04:57;77546.34;;;-144.09;97.38
8890;BME280;4481;43.406;24.454;2023-03-05T05:07:23;77554.72;;;-144.09;98.04
8890;BME280;4481;43.406;24.454;2023-03-05T05:09:49;77565.16;;;-144.09;97.89
8890;BME280;4481;43.406;24.454;2023-03-05T05:12:16;77563.06;;;-144.09;97.71
8890;BME280;4481;43.406;24.454;2023-03-05T05:14:42;77567.25;;;-144.09;97.98
8890;BME280;4481;43.406;24.454;2023-03-05T05:17:08;77546.34;;;-144.09;96.83
8890;BME280;4481;43.406;24.454;2023-03-05T05:19:34;77552.63;;;-144.09;96.75
8890;BME280;4481;43.406;24.454;2023-03-05T05:22:01;77544.25;;;-144.09;96.19
8890;BME280;4481;43.406;24.454;2023-03-05T05:24:27;77538.00;;;-144.09;96.73
8890;BME280;4481;43.406;24.454;2023-03-05T05:26:54;77533.81;;;-144.09;96.40
8890;BME280;4481;43.406;24.454;2023-03-05T05:29:21;77542.16;;;-144.09;96.40
8890;BME280;4481;43.406;24.454;2023-03-05T05:31:47;77519.19;;;-144.09;95.60
8890;BME280;4481;43.406;24.454;2023-03-05T05:34:13;77531.72;;;-144.09;96.16
8890;BME280;4481;43.406;24.454;2023-03-05T05:36:40;77519.19;;;-144.09;96.15
8890;BME280;4481;43.406;24.454;2023-03-05T05:39:06;77512.91;;;-144.09;95.71
8890;BME280;4481;43.406;24.454;2023-03-05T05:41:32;77489.91;;;-144.09;95.14
8890;BME280;4481;43.406;24.454;2023-03-05T05:43:58;77489.91;;;-144.09;95.33
8890;BME280;4481;43.406;24.454;2023-03-05T05:46:25;77492.00;;;-144.09;95.29
8890;BME280;4481;43.406;24.454;2023-03-05T05:48:53;77471.09;;;-144.09;94.65
8890;BME280;4481;43.406;24.454;2023-03-05T05:51:21;77471.09;;;-144.09;94.62
8890;BME280;4481;43.406;24.454;2023-03-05T05:53:48;77456.47;;;-144.09;94.50
8890;BME280;4481;43.406;24.454;2023-03-05T05:56:15;77469.00;;;-144.09;94.52
8890;BME280;4481;43.406;24.454;2023-03-05T05:58:42;77456.47;;;-144.09;94.43
8890;BME280;4481;43.406;24.454;2023-03-05T06:01:13;77443.94;;;-144.09;94.20
8890;BME280;4481;43.406;24.454;2023-03-05T06:03:41;77425.13;;;-144.09;93.88
8890;BME280;4481;43.406;24.454;2023-03-05T06:06:08;77427.22;;;-144.09;94.45
8890;BME280;4481;43.406;24.454;2023-03-05T06:08:35;77431.38;;;-144.09;94.14
8890;BME280;4481;43.406;24.454;2023-03-05T06:11:01;77414.66;;;-144.09;93.56
8890;BME280;4481;43.406;24.454;2023-03-05T06:13:27;77414.66;;;-144.09;93.45
8890;BME280;4481;43.406;24.454;2023-03-05T06:15:56;77404.22;;;-144.09;93.33
8890;BME280;4481;43.406;24.454;2023-03-05T06:18:23;77383.31;;;-144.09;92.91
8890;BME280;4481;43.406;24.454;2023-03-05T06:20:54;77358.25;;;-144.09;92.68
8890;BME280;4481;43.406;24.454;2023-03-05T06:23:20;77358.25;;;-144.09;92.06
8890;BME280;4481;43.406;24.454;2023-03-05T06:25:46;77341.53;;;-144.09;91.67
8890;BME280;4481;43.406;24.454;2023-03-05T06:28:12;77331.06;;;-144.09;91.61
8890;BME280;4481;43.406;24.454;2023-03-05T06:30:38;77316.44;;;-144.09;91.13
8890;BME280;4481;43.406;24.454;2023-03-05T06:33:05;77320.63;;;-144.09;91.33
8890;BME280;4481;43.406;24.454;2023-03-05T06:35:31;77285.09;;;-144.09;90.77
8890;BME280;4481;43.406;24.454;2023-03-05T06:37:58;77276.72;;;-144.09;90.29
8890;BME280;4481;43.406;24.454;2023-03-05T06:40:24;77266.28;;;-144.09;90.69
8890;BME280;4481;43.406;24.454;2023-03-05T06:42:50;77247.47;;;-144.09;90.17
8890;BME280;4481;43.406;24.454;2023-03-05T06:45:16;77234.94;;;-144.09;89.71
8890;BME280;4481;43.406;24.454;2023-03-05T06:47:42;77209.84;;;-144.09;88.83
8890;BME280;4481;43.406;24.454;2023-03-05T06:50:10;77218.22;;;-144.09;88.20
8890;BME280;4481;43.406;24.454;2023-03-05T06:52:36;77218.22;;;-144.09;88.93
8890;BME280;4481;43.406;24.454;2023-03-05T06:55:06;77211.94;;;-144.09;88.47
8890;BME280;4481;43.406;24.454;2023-03-05T06:57:32;77197.31;;;-144.09;87.94
8890;BME280;4481;43.406;24.454;2023-03-05T06:59:58;77178.50;;;-144.09;87.49
8890;BME280;4481;43.406;24.454;2023-03-05T07:02:25;77153.41;;;-144.09;87.25
8890;BME280;4481;43.406;24.454;2023-03-05T07:04:51;77155.50;;;-144.09;86.94
8890;BME280;4481;43.406;24.454;2023-03-05T07:07:17;77138.78;;;-144.09;86.09
8890;BME280;4481;43.406;24.454;2023-03-05T07:09:43;77145.06;;;-144.09;85.50
8890;BME280;4481;43.406;24.454;2023-03-05T07:12:11;77124.16;;;-144.09;85.95
8890;BME280;4481;43.406;24.454;2023-03-05T07:14:37;77109.53;;;-144.09;85.31
8890;BME280;4481;43.406;24.454;2023-03-05T07:17:05;77103.25;;;-144.09;86.00
8890;BME280;4481;43.406;24.454;2023-03-05T07:19:31;77099.09;;;-144.09;85.78
8890;BME280;4481;43.406;24.454;2023-03-05T07:21:57;77086.53;;;-144.09;85.82
8890;BME280;4481;43.406;24.454;2023-03-05T07:24:23;77061.47;;;-144.09;85.40
8890;BME280;4481;43.406;24.454;2023-03-05T07:26:54;77065.66;;;-144.09;85.17
8890;BME280;4481;43.406;24.454;2023-03-05T07:29:21;77038.47;;;-144.09;85.00
8890;BME280;4481;43.406;24.454;2023-03-05T07:31:48;77028.03;;;-144.09;85.18
8890;BME280;4481;43.406;24.454;2023-03-05T07:34:14;77023.84;;;-144.09;84.63
8890;BME280;4481;43.406;24.454;2023-03-05T07:36:40;77002.94;;;-144.09;84.60
8890;BME280;4481;43.406;24.454;2023-03-05T07:39:08;77000.88;;;-144.09;84.75
8890;BME280;4481;43.406;24.454;2023-03-05T07:41:35;77013.41;;;-144.09;84.04
8890;BME280;4481;43.406;24.454;2023-03-05T07:44:01;77013.41;;;-144.09;84.07
8890;BME280;4481;43.406;24.454;2023-03-05T07:46:31;76996.69;;;-144.09;82.87
8890;BME280;4481;43.406;24.454;2023-03-05T07:48:58;76988.31;;;-144.09;81.68
8890;BME280;4481;43.406;24.454;2023-03-05T07:51:26;77011.31;;;-144.09;82.55
8890;BME280;4481;43.406;24.454;2023-03-05T07:53:53;77005.03;;;-144.09;81.34
8890;BME280;4481;43.406;24.454;2023-03-05T07:56:21;76979.97;;;-144.09;82.15
8890;BME280;4481;43.406;24.454;2023-03-05T07:58:47;76971.59;;;-144.09;80.44
8890;BME280;4481;43.406;24.454;2023-03-05T08:01:14;76954.88;;;-144.09;81.19
8890;BME280;4481;43.406;24.454;2023-03-05T08:03:41;76956.97;;;-144.09;81.41
8890;BME280;4481;43.406;24.454;2023-03-05T08:06:08;76954.88;;;-144.09;81.32
8890;BME280;4481;43.406;24.454;2023-03-05T08:08:35;76944.44;;;-144.09;81.64
8890;BME280;4481;43.406;24.454;2023-03-05T08:11:02;76929.81;;;-144.09;80.81
8890;BME280;4481;43.406;24.454;2023-03-05T08:13:29;76927.72;;;-144.09;80.83
8890;BME280;4481;43.406;24.454;2023-03-05T08:15:55;76936.06;;;-144.09;80.89
8890;BME280;4481;43.406;24.454;2023-03-05T08:18:21;76927.72;;;-144.09;80.58
8890;BME280;4481;43.406;24.454;2023-03-05T08:20:48;76900.56;;;-144.09;80.10
8890;BME280;4481;43.406;24.454;2023-03-05T08:23:14;76919.34;;;-144.09;79.41
8890;BME280;4481;43.406;24.454;2023-03-05T08:25:40;76936.06;;;-144.09;80.17
8890;BME280;4481;43.406;24.454;2023-03-05T08:28:06;76923.53;;;-144.09;80.11
8890;BME280;4481;43.406;24.454;2023-03-05T08:30:32;76900.56;;;-144.09;78.97
8890;BME280;4481;43.406;24.454;2023-03-05T08:32:58;76877.56;;;-144.09;80.05
8890;BME280;4481;43.406;24.454;2023-03-05T08:35:25;76877.56;;;-144.09;78.93
8890;BME280;4481;43.406;24.454;2023-03-05T08:37:51;76871.28;;;-144.09;78.91
8890;BME280;4481;43.406;24.454;2023-03-05T08:40:18;76871.28;;;-144.09;78.48
8890;BME280;4481;43.406;24.454;2023-03-05T08:42:44;76871.28;;;-144.09;78.82
8890;BME280;4481;43.406;24.454;2023-03-05T08:45:11;76869.19;;;-144.09;78.50
8890;BME280;4481;43.406;24.454;2023-03-05T08:47:38;76850.41;;;-144.09;79.13
8890;BME280;4481;43.406;24.454;2023-03-05T08:50:05;76852.47;;;-144.09;78.27
8890;BME280;4481;43.406;24.454;2023-03-05T08:52:31;76844.13;;;-144.09;78.55
8890;BME280;4481;43.406;24.454;2023-03-05T08:54:58;76802.34;;;-144.09;77.87
8890;BME280;4481;43.406;24.454;2023-03-05T08:57:24;76816.97;;;-144.09;78.16
8890;BME280;4481;43.406;24.454;2023-03-05T08:59:50;76810.69;;;-144.09;77.33
8890;BME280;4481;43.406;24.454;2023-03-05T09:02:16;76798.16;;;-144.09;76.65
8890;BME280;4481;43.406;24.454;2023-03-05T09:04:43;76791.88;;;-144.09;76.51
8890;BME280;4481;43.406;24.454;2023-03-05T09:07:09;76783.53;;;-144.09;69.48
8890;BME280;4481;43.406;24.454;2023-03-05T09:09:35;76806.50;;;-144.09;63.46
8890;BME280;4481;43.406;24.454;2023-03-05T09:12:03;76814.88;;;-144.09;65.21
8890;BME280;4481;43.406;24.454;2023-03-05T09:14:29;76825.31;;;-144.09;65.92
8890;BME280;4481;43.406;24.454;2023-03-05T09:16:56;76806.50;;;-144.09;64.83
8890;BME280;4481;43.406;24.454;2023-03-05T09:19:22;76800.25;;;-144.09;64.30
8890;BME280;4481;43.406;24.454;2023-03-05T09:21:49;76771.00;;;-144.09;63.68
8890;BME280;4481;43.406;24.454;2023-03-05T09:24:15;76775.16;;;-144.09;63.68
8890;BME280;4481;43.406;24.454;2023-03-05T09:26:41;76760.53;;;-144.09;62.94
8890;BME280;4481;43.406;24.454;2023-03-05T09:29:08;76750.09;;;-144.09;62.45
8890;BME280;4481;43.406;24.454;2023-03-05T09:31:34;76745.91;;;-144.09;63.22
8890;BME280;4481;43.406;24.454;2023-03-05T09:34:01;76745.91;;;-144.09;63.50
8890;BME280;4481;43.406;24.454;2023-03-05T09:36:29;76735.47;;;-144.09;61.79
8890;BME280;4481;43.406;24.454;2023-03-05T09:38:55;76745.91;;;-144.09;62.90
8890;BME280;4481;43.406;24.454;2023-03-05T09:41:28;76741.72;;;-144.09;64.06
8890;BME280;4481;43.406;24.454;2023-03-05T09:44:04;76722.94;;;-144.09;62.01
8890;BME280;4481;43.406;24.454;2023-03-05T09:46:43;76718.75;;;-144.09;62.08
8890;BME280;4481;43.406;24.454;2023-03-05T09:49:15;76708.28;;;-144.09;60.40
8890;BME280;4481;43.406;24.454;2023-03-05T09:51:44;76722.94;;;-144.09;59.18
8890;BME280;4481;43.406;24.454;2023-03-05T09:54:13;76733.38;;;-144.09;60.12
8890;BME280;4481;43.406;24.454;2023-03-05T09:56:44;76729.19;;;-144.09;58.89
8890;BME280;4481;43.406;24.454;2023-03-05T09:59:21;76735.47;;;-144.09;60.27
8890;BME280;4481;43.406;24.454;2023-03-05T10:01:52;76716.66;;;-144.09;60.11
8890;BME280;4481;43.406;24.454;2023-03-05T10:04:24;76720.84;;;-144.09;59.60
8890;BME280;4481;43.406;24.454;2023-03-05T10:06:57;76731.28;;;-144.09;60.02
8890;BME280;4481;43.406;24.454;2023-03-05T10:09:40;76741.72;;;-144.09;60.72
8890;BME280;4481;43.406;24.454;2023-03-05T10:12:15;76733.38;;;-144.09;60.66
8890;BME280;4481;43.406;24.454;2023-03-05T10:14:44;76733.38;;;-144.09;61.07
8890;BME280;4481;43.406;24.454;2023-03-05T10:17:26;76727.09;;;-144.09;61.09
8890;BME280;4481;43.406;24.454;2023-03-05T10:20:06;76731.28;;;-144.09;61.72
8890;BME280;4481;43.406;24.454;2023-03-05T10:22:41;76712.47;;;-144.09;60.87
8890;BME280;4481;43.406;24.454;2023-03-05T10:25:19;76714.56;;;-144.09;60.37
8890;BME280;4481;43.406;24.454;2023-03-05T10:27:50;76720.84;;;-144.09;59.65
8890;BME280;4481;43.406;24.454;2023-03-05T10:30:31;76731.28;;;-144.09;60.88
8890;BME280;4481;43.406;24.454;2023-03-05T10:33:10;76714.56;;;-144.09;61.59
8890;BME280;4481;43.406;24.454;2023-03-05T10:38:38;76725.00;;;-144.09;60.93
8890;BME280;4481;43.406;24.454;2023-03-05T10:41:16;76722.94;;;-144.09;60.41
8890;BME280;4481;43.406;24.454;2023-03-05T10:43:51;76699.94;;;-144.09;61.55
8890;BME280;4481;43.406;24.454;2023-03-05T10:46:25;76708.28;;;-144.09;61.00
8890;BME280;4481;43.406;24.454;2023-03-05T10:48:58;76706.22;;;-144.09;60.22
8890;BME280;4481;43.406;24.454;2023-03-05T10:51:32;76710.38;;;-144.09;60.10
8890;BME280;4481;43.406;24.454;2023-03-05T10:54:03;76708.28;;;-144.09;62.33
8890;BME280;4481;43.406;24.454;2023-03-05T10:56:34;76693.66;;;-144.09;61.07
8890;BME280;4481;43.406;24.454;2023-03-05T10:59:00;76722.94;;;-144.09;59.58
8890;BME280;4481;43.406;24.454;2023-03-05T11:01:28;76727.09;;;-144.09;60.39
8890;BME280;4481;43.406;24.454;2023-03-05T11:03:57;76748.00;;;-144.09;61.10
8890;BME280;4481;43.406;24.454;2023-03-05T11:06:30;76748.00;;;-144.09;60.85
8890;BME280;4481;43.406;24.454;2023-03-05T11:09:15;76739.63;;;-144.09;61.74
8890;BME280;4481;43.406;24.454;2023-03-05T11:11:42;76718.75;;;-144.09;60.87
8890;BME280;4481;43.406;24.454;2023-03-05T11:14:23;76725.00;;;-144.09;61.18
8890;BME280;4481;43.406;24.454;2023-03-05T11:16:54;76737.56;;;-144.09;60.41
8890;BME280;4481;43.406;24.454;2023-03-05T11:19:24;76725.00;;;-144.09;61.32
8890;BME280;4481;43.406;24.454;2023-03-05T11:22:07;76706.22;;;-144.09;60.05
8890;BME280;4481;43.406;24.454;2023-03-05T11:24:38;76710.38;;;-144.09;60.34
8890;BME280;4481;43.406;24.454;2023-03-05T11:27:21;76720.84;;;-144.09;59.19
8890;BME280;4481;43.406;24.454;2023-03-05T11:29:49;76722.94;;;-144.09;59.96
8890;BME280;4481;43.406;24.454;2023-03-05T11:32:20;76687.41;;;-144.09;60.46
8890;BME280;4481;43.406;24.454;2023-03-05T11:34:47;76674.88;;;-144.09;60.10
8890;BME280;4481;43.406;24.454;2023-03-05T11:37:21;76685.31;;;-144.09;59.69
8890;BME280;4481;43.406;24.454;2023-03-05T11:39:49;76681.13;;;-144.09;59.28
8890;BME280;4481;43.406;24.454;2023-03-05T11:42:29;76662.31;;;-144.09;59.96
8890;BME280;4481;43.406;24.454;2023-03-05T11:44:56;76681.13;;;-144.09;58.08
8890;BME280;4481;43.406;24.454;2023-03-05T11:47:27;76670.69;;;-144.09;58.69
8890;BME280;4481;43.406;24.454;2023-03-05T11:50:00;76658.16;;;-144.09;60.00
8890;BME280;4481;43.406;24.454;2023-03-05T11:52:30;76656.06;;;-144.09;59.06
8890;BME280;4481;43.406;24.454;2023-03-05T11:55:03;76658.16;;;-144.09;59.48
8890;BME280;4481;43.406;24.454;2023-03-05T11:57:38;76651.88;;;-144.09;59.86
8890;BME280;4481;43.406;24.454;2023-03-05T12:00:12;76647.69;;;-144.09;59.58
8890;BME280;4481;43.406;24.454;2023-03-05T12:02:39;76647.69;;;-144.09;59.35
8890;BME280;4481;43.406;24.454;2023-03-05T12:05:06;76618.44;;;-144.09;60.58
8890;BME280;4481;43.406;24.454;2023-03-05T12:07:36;76618.44;;;-144.09;59.63
8890;BME280;4481;43.406;24.454;2023-03-05T12:10:05;76628.91;;;-144.09;59.30
8890;BME280;4481;43.406;24.454;2023-03-05T12:12:37;76616.34;;;-144.09;58.87
8890;BME280;4481;43.406;24.454;2023-03-05T12:15:26;76610.09;;;-144.09;58.75
8890;BME280;4481;43.406;24.454;2023-03-05T12:18:03;76599.63;;;-144.09;58.69
8890;BME280;4481;43.406;24.454;2023-03-05T12:20:36;76593.38;;;-144.09;59.35
8890;BME280;4481;43.406;24.454;2023-03-05T12:23:11;76578.75;;;-144.09;57.61
8890;BME280;4481;43.406;24.454;2023-03-05T12:25:45;76576.66;;;-144.09;57.75
8890;BME280;4481;43.406;24.454;2023-03-05T12:28:14;76568.28;;;-144.09;58.51
8890;BME280;4481;43.406;24.454;2023-03-05T12:30:58;76555.75;;;-144.09;58.54
8890;BME280;4481;43.406;24.454;2023-03-05T12:33:36;76557.84;;;-144.09;58.58
8890;BME280;4481;43.406;24.454;2023-03-05T12:36:36;76549.50;;;-144.09;58.10
8890;BME280;4481;43.406;24.454;2023-03-05T12:45:26;76555.75;;;-144.09;58.09
8890;BME280;4481;43.406;24.454;2023-03-05T12:50:57;76507.69;;;-144.09;58.79
8890;BME280;4481;43.406;24.454;2023-03-05T12:53:24;76505.59;;;-144.09;57.02
8890;BME280;4481;43.406;24.454;2023-03-05T12:55:59;76541.13;;;-144.09;56.70
8890;BME280;4481;43.406;24.454;2023-03-05T12:58:34;76511.88;;;-144.09;56.79
8890;BME280;4481;43.406;24.454;2023-03-05T13:01:06;76518.16;;;-144.09;56.06
8890;BME280;4481;43.406;24.454;2023-03-05T13:03:43;76528.59;;;-144.09;56.80
8890;BME280;4481;43.406;24.454;2023-03-05T13:06:22;76532.78;;;-144.09;56.23
8890;BME280;4481;43.406;24.454;2023-03-05T13:08:56;76513.97;;;-144.09;56.51